createdAt,value
2017-07-17T00:01:07.996Z,2.93
2017-07-17T00:03:35.942Z,3.37
2017-07-17T00:06:03.875Z,3.53
2017-07-17T00:08:31.800Z,2.90
2017-07-17T00:10:59.727Z,3.20
2017-07-17T00:13:27.640Z,2.60
2017-07-17T00:15:55.579Z,2.93
2017-07-17T00:18:23.514Z,2.90
2017-07-17T00:20:51.443Z,3.10
2017-07-17T00:23:19.373Z,3.20
2017-07-17T00:25:47.305Z,2.90
2017-07-17T00:28:15.251Z,3.20
2017-07-17T00:30:43.178Z,3.40
2017-07-17T00:33:11.095Z,3.07
2017-07-17T00:35:39.025Z,2.50
2017-07-17T00:38:06.975Z,2.73
2017-07-17T00:40:34.918Z,3.20
2017-07-17T00:43:02.853Z,2.70
2017-07-17T00:45:30.815Z,3.20
2017-07-17T00:47:58.718Z,3.20
2017-07-17T00:50:26.669Z,3.00
2017-07-17T00:52:54.633Z,2.87
2017-07-17T00:55:22.548Z,2.90
2017-07-17T00:57:50.488Z,2.80
2017-07-17T01:00:18.418Z,3.30
2017-07-17T01:02:46.350Z,3.00
2017-07-17T01:05:14.285Z,3.13
2017-07-17T01:07:42.217Z,2.67
2017-07-17T01:10:10.170Z,3.27
2017-07-17T01:12:38.098Z,3.10
2017-07-17T01:15:06.057Z,3.50
2017-07-17T01:17:34.014Z,2.67
2017-07-17T01:20:01.942Z,2.40
2017-07-17T01:22:29.870Z,3.47
2017-07-17T01:24:57.791Z,2.80
2017-07-17T01:27:25.709Z,2.93
2017-07-17T01:29:53.653Z,3.30
2017-07-17T01:32:21.601Z,2.67
2017-07-17T01:34:49.529Z,2.77
2017-07-17T01:37:17.490Z,2.50
2017-07-17T01:39:45.431Z,2.40
2017-07-17T01:42:13.363Z,3.40
2017-07-17T01:44:41.325Z,2.73
2017-07-17T01:47:09.266Z,2.60
2017-07-17T01:49:37.225Z,3.00
2017-07-17T01:52:05.153Z,2.93
2017-07-17T01:54:33.080Z,2.70
2017-07-17T01:57:01.004Z,2.63
2017-07-17T01:59:28.929Z,2.53
2017-07-17T02:01:56.865Z,3.93
2017-07-17T02:04:24.787Z,2.77
2017-07-17T02:06:52.703Z,2.53
2017-07-17T02:09:20.634Z,2.77
2017-07-17T02:11:48.541Z,2.77
2017-07-17T02:14:16.515Z,2.60
2017-07-17T02:16:44.440Z,2.77
2017-07-17T02:19:12.383Z,2.60
2017-07-17T02:21:40.307Z,2.60
2017-07-17T02:24:08.254Z,2.60
2017-07-17T02:26:36.215Z,2.57
2017-07-17T02:29:04.149Z,2.77
2017-07-17T02:31:32.068Z,2.80
2017-07-17T02:33:59.993Z,2.30
2017-07-17T02:36:27.918Z,2.90
2017-07-17T02:38:55.873Z,2.60
2017-07-17T02:41:23.786Z,2.43
2017-07-17T02:43:51.713Z,2.57
2017-07-17T02:46:19.649Z,2.60
2017-07-17T02:48:47.564Z,2.50
2017-07-17T02:51:15.503Z,2.60
2017-07-17T02:53:43.432Z,2.43
2017-07-17T02:56:11.353Z,2.80
2017-07-17T02:58:39.268Z,2.10
2017-07-17T03:01:07.190Z,2.90
2017-07-17T03:03:35.126Z,2.47
2017-07-17T03:06:03.046Z,2.80
2017-07-17T03:08:30.961Z,2.90
2017-07-17T03:10:58.886Z,2.40
2017-07-17T03:13:26.811Z,2.57
2017-07-17T03:15:54.752Z,2.50
2017-07-17T03:18:22.667Z,2.67
2017-07-17T03:20:50.605Z,2.43
2017-07-17T03:23:18.580Z,2.90
2017-07-17T03:25:46.510Z,2.27
2017-07-17T03:28:14.487Z,2.50
2017-07-17T03:30:42.401Z,4.33
2017-07-17T03:33:10.333Z,3.20
2017-07-17T03:35:38.249Z,3.30
2017-07-17T03:38:06.182Z,2.67
2017-07-17T03:40:34.138Z,2.17
2017-07-17T03:43:02.069Z,2.77
2017-07-17T03:45:29.993Z,2.27
2017-07-17T03:47:57.918Z,2.40
2017-07-17T03:50:26.630Z,2.70
2017-07-17T03:52:54.575Z,2.47
2017-07-17T03:55:22.498Z,2.80
2017-07-17T03:57:50.409Z,2.80
2017-07-17T04:00:18.325Z,2.70
2017-07-17T04:02:46.251Z,2.40
2017-07-17T04:05:14.229Z,2.50
2017-07-17T04:07:42.144Z,2.60
2017-07-17T04:10:10.063Z,2.20
2017-07-17T04:12:37.985Z,2.93
2017-07-17T04:15:05.933Z,2.57
2017-07-17T04:17:33.878Z,2.83
2017-07-17T04:20:01.831Z,2.50
2017-07-17T04:22:29.737Z,2.70
2017-07-17T04:24:57.654Z,2.80
2017-07-17T04:27:25.590Z,2.97
2017-07-17T04:29:53.518Z,2.63
2017-07-17T04:32:21.445Z,2.47
2017-07-17T04:34:49.361Z,2.60
2017-07-17T04:37:17.313Z,2.40
2017-07-17T04:39:45.234Z,2.20
2017-07-17T04:42:13.162Z,3.20
2017-07-17T04:44:41.086Z,2.60
2017-07-17T04:47:09.049Z,2.87
2017-07-17T04:49:37.024Z,2.70
2017-07-17T04:52:04.977Z,1.90
2017-07-17T04:54:32.915Z,2.63
2017-07-17T04:57:00.844Z,2.20
2017-07-17T04:59:28.783Z,2.27
2017-07-17T05:01:56.727Z,3.33
2017-07-17T05:04:24.661Z,2.27
2017-07-17T05:06:52.590Z,2.37
2017-07-17T05:09:20.524Z,2.67
2017-07-17T05:11:48.451Z,2.47
2017-07-17T05:14:16.402Z,2.20
2017-07-17T05:16:44.334Z,4.40
2017-07-17T05:19:12.777Z,2.30
2017-07-17T05:21:40.700Z,2.50
2017-07-17T05:24:08.628Z,2.63
2017-07-17T05:26:36.671Z,2.30
2017-07-17T05:29:04.602Z,2.33
2017-07-17T05:31:32.559Z,2.97
2017-07-17T05:34:00.504Z,2.20
2017-07-17T05:36:28.463Z,2.50
2017-07-17T05:38:56.433Z,2.70
2017-07-17T05:41:24.382Z,2.23
2017-07-17T05:43:52.298Z,3.00
2017-07-17T05:46:20.234Z,2.30
2017-07-17T05:48:48.166Z,5.80
2017-07-17T05:51:16.109Z,4.00
2017-07-17T05:53:44.052Z,3.17
2017-07-17T05:56:11.998Z,3.67
2017-07-17T05:58:39.954Z,8.93
2017-07-17T06:01:07.894Z,9.70
2017-07-17T06:03:35.840Z,4.17
2017-07-17T06:06:03.764Z,8.20
2017-07-17T06:08:31.692Z,10.47
2017-07-17T06:10:59.624Z,11.37
2017-07-17T06:13:27.543Z,8.83
2017-07-17T06:15:55.503Z,6.27
2017-07-17T06:18:23.434Z,6.50
2017-07-17T06:20:51.373Z,8.87
2017-07-17T06:23:19.289Z,5.30
2017-07-17T06:25:47.211Z,5.63
2017-07-17T06:28:15.175Z,5.67
2017-07-17T06:30:43.107Z,8.10
2017-07-17T06:33:11.051Z,7.83
2017-07-17T06:35:39.002Z,6.10
2017-07-17T06:38:06.947Z,5.60
2017-07-17T06:40:34.891Z,5.40
2017-07-17T06:43:02.883Z,7.30
2017-07-17T06:45:30.817Z,5.87
2017-07-17T06:47:58.739Z,3.80
2017-07-17T06:50:26.673Z,5.77
2017-07-17T06:52:54.626Z,3.67
2017-07-17T06:55:22.554Z,6.70
2017-07-17T06:57:50.477Z,3.87
2017-07-17T07:00:18.430Z,4.60
2017-07-17T07:02:46.365Z,5.63
2017-07-17T07:05:14.401Z,3.37
2017-07-17T07:07:42.331Z,5.03
2017-07-17T07:10:10.267Z,5.70
2017-07-17T07:12:38.193Z,2.90
2017-07-17T07:15:06.134Z,2.30
2017-07-17T07:17:34.082Z,3.30
2017-07-17T07:20:01.994Z,3.10
2017-07-17T07:22:29.929Z,2.90
2017-07-17T07:24:57.854Z,3.30
2017-07-17T07:27:25.794Z,2.30
2017-07-17T07:29:53.752Z,4.37
2017-07-17T07:32:21.688Z,2.47
2017-07-17T07:34:49.618Z,2.40
2017-07-17T07:37:17.593Z,4.53
2017-07-17T07:39:45.559Z,2.47
2017-07-17T07:42:13.510Z,3.10
2017-07-17T07:44:41.438Z,2.30
2017-07-17T07:47:09.378Z,6.60
2017-07-17T07:49:37.314Z,3.13
2017-07-17T07:52:05.465Z,2.20
2017-07-17T07:54:33.596Z,2.90
2017-07-17T07:57:01.534Z,1.87
2017-07-17T07:59:29.680Z,2.30
2017-07-17T08:01:57.861Z,2.27
2017-07-17T08:04:26.031Z,2.13
2017-07-17T08:06:54.201Z,2.17
2017-07-17T08:09:22.310Z,2.30
2017-07-17T08:11:50.460Z,3.00
2017-07-17T08:14:18.438Z,2.97
2017-07-17T08:16:46.530Z,3.90
2017-07-17T08:19:14.686Z,2.53
2017-07-17T08:21:42.618Z,1.97
2017-07-17T08:24:10.562Z,4.63
2017-07-17T08:26:38.521Z,2.27
2017-07-17T08:29:06.451Z,3.27
2017-07-17T08:31:34.395Z,2.70
2017-07-17T08:34:02.348Z,2.17
2017-07-17T08:36:30.303Z,2.83
2017-07-17T08:38:58.293Z,2.40
2017-07-17T08:41:26.240Z,2.23
2017-07-17T08:43:54.191Z,2.03
2017-07-17T08:46:22.129Z,2.30
2017-07-17T08:48:50.092Z,2.30
2017-07-17T08:51:18.066Z,2.60
2017-07-17T08:53:46.207Z,2.83
2017-07-17T08:56:14.141Z,2.23
2017-07-17T08:58:42.075Z,2.00
2017-07-17T09:01:09.998Z,2.70
2017-07-17T09:03:37.973Z,2.00
2017-07-17T09:06:05.899Z,1.80
2017-07-17T09:08:33.884Z,2.50
2017-07-17T09:11:01.831Z,1.80
2017-07-17T09:13:29.787Z,2.97
2017-07-17T09:15:57.747Z,1.90
2017-07-17T09:18:25.722Z,2.10
2017-07-17T09:20:53.660Z,2.20
2017-07-17T09:23:21.613Z,1.77
2017-07-17T09:25:49.564Z,2.20
2017-07-17T09:28:17.514Z,2.93
2017-07-17T09:30:45.445Z,1.70
2017-07-17T09:33:13.387Z,2.63
2017-07-17T09:35:41.310Z,1.83
2017-07-17T09:38:09.269Z,1.43
2017-07-17T09:40:37.321Z,1.70
2017-07-17T09:43:05.402Z,2.10
2017-07-17T09:45:33.758Z,1.70
2017-07-17T09:48:01.886Z,1.70
2017-07-17T09:50:29.821Z,1.70
2017-07-17T09:52:58.022Z,1.93
2017-07-17T09:55:25.984Z,1.70
2017-07-17T09:57:54.125Z,2.27
2017-07-17T10:00:22.097Z,1.80
2017-07-17T10:02:50.082Z,1.80
2017-07-17T10:05:18.062Z,2.00
2017-07-17T10:07:46.017Z,1.70
2017-07-17T10:10:13.976Z,1.80
2017-07-17T10:12:42.329Z,3.00
2017-07-17T10:15:10.542Z,1.63
2017-07-17T10:17:38.517Z,1.70
2017-07-17T10:20:06.475Z,1.87
2017-07-17T10:22:34.435Z,1.77
2017-07-17T10:25:02.383Z,2.57
2017-07-17T10:27:30.313Z,1.83
2017-07-17T10:29:58.283Z,2.00
2017-07-17T10:32:26.228Z,1.70
2017-07-17T10:34:54.212Z,1.57
2017-07-17T10:37:22.146Z,1.50
2017-07-17T10:39:50.146Z,1.47
2017-07-17T10:42:18.117Z,1.63
2017-07-17T10:44:46.043Z,1.60
2017-07-17T10:47:14.236Z,2.13
2017-07-17T10:49:42.171Z,1.60
2017-07-17T10:52:10.113Z,2.20
2017-07-17T10:54:38.101Z,1.70
2017-07-17T10:57:06.052Z,2.10
2017-07-17T10:59:34.011Z,2.10
2017-07-17T11:02:01.965Z,1.50
2017-07-17T11:04:29.907Z,1.70
2017-07-17T11:06:57.905Z,1.67
2017-07-17T11:09:25.850Z,1.60
2017-07-17T11:11:53.795Z,1.60
2017-07-17T11:14:21.723Z,2.60
2017-07-17T11:16:49.655Z,1.73
2017-07-17T11:19:17.670Z,2.23
2017-07-17T11:21:45.588Z,1.80
2017-07-17T11:24:13.511Z,1.40
2017-07-17T11:26:41.469Z,1.83
2017-07-17T11:29:09.403Z,1.47
2017-07-17T11:31:37.363Z,1.77
2017-07-17T11:34:05.302Z,2.60
2017-07-17T11:36:33.246Z,2.17
2017-07-17T11:39:01.178Z,2.90
2017-07-17T11:41:29.106Z,1.77
2017-07-17T11:43:57.080Z,1.90
2017-07-17T11:56:39.320Z,2.63
2017-07-17T11:59:07.354Z,1.63
2017-07-17T12:01:35.312Z,2.63
2017-07-17T12:04:03.256Z,1.63
2017-07-17T12:06:31.187Z,2.00
2017-07-17T12:08:59.128Z,2.50
2017-07-17T12:11:27.083Z,2.60
2017-07-17T12:13:55.083Z,2.17
2017-07-17T12:16:23.031Z,3.57
2017-07-17T12:18:51.011Z,2.63
2017-07-17T12:21:18.943Z,3.00
2017-07-17T12:23:46.946Z,2.20
2017-07-17T12:26:14.917Z,2.80
2017-07-17T12:28:42.850Z,2.07
2017-07-17T12:31:10.799Z,1.20
2017-07-17T12:33:39.007Z,1.97
2017-07-17T12:36:07.001Z,1.67
2017-07-17T12:38:34.951Z,1.57
2017-07-17T12:41:02.884Z,2.60
2017-07-17T12:43:30.819Z,2.40
2017-07-17T12:45:58.771Z,2.60
2017-07-17T12:48:26.743Z,1.67
2017-07-17T12:50:54.684Z,2.20
2017-07-17T12:53:22.620Z,2.43
2017-07-17T12:55:50.579Z,2.03
2017-07-17T12:58:18.532Z,2.03
2017-07-17T13:00:46.518Z,2.93
2017-07-17T13:03:14.459Z,2.20
2017-07-17T13:05:42.425Z,2.07
2017-07-17T13:08:10.395Z,2.13
2017-07-17T13:10:38.344Z,1.53
2017-07-17T13:13:06.313Z,1.80
2017-07-17T13:15:34.263Z,3.13
2017-07-17T13:18:02.207Z,1.77
2017-07-17T13:20:30.185Z,2.33
2017-07-17T13:22:58.135Z,2.70
2017-07-17T13:25:26.094Z,3.40
2017-07-17T13:27:54.063Z,1.30
2017-07-17T13:30:22.057Z,2.43
2017-07-17T13:32:49.999Z,3.73
2017-07-17T13:35:17.939Z,1.87
2017-07-17T13:37:45.915Z,1.73
2017-07-17T13:40:13.860Z,2.07
2017-07-17T13:42:41.811Z,3.07
2017-07-17T13:45:09.755Z,2.20
2017-07-17T13:47:37.909Z,2.90
2017-07-17T13:50:05.887Z,2.50
2017-07-17T13:52:33.847Z,2.87
2017-07-17T13:55:01.783Z,1.40
2017-07-17T13:57:29.726Z,2.50
2017-07-17T13:59:57.663Z,1.83
2017-07-17T14:02:25.614Z,2.13
2017-07-17T14:04:53.565Z,1.50
2017-07-17T14:07:21.507Z,2.73
2017-07-17T14:09:49.438Z,2.50
2017-07-17T14:12:17.841Z,1.50
2017-07-17T14:14:45.880Z,2.03
2017-07-17T14:17:13.833Z,1.73
2017-07-17T14:19:42.029Z,5.60
2017-07-17T14:22:09.979Z,1.63
2017-07-17T14:24:37.935Z,1.40
2017-07-17T14:27:05.901Z,1.87
2017-07-17T14:29:33.859Z,2.50
2017-07-17T14:32:01.800Z,5.63
2017-07-17T14:34:29.735Z,1.50
2017-07-17T14:36:57.667Z,1.50
2017-07-17T14:39:25.634Z,2.17
2017-07-17T14:41:53.612Z,1.90
2017-07-17T14:44:21.556Z,1.50
2017-07-17T14:46:49.482Z,1.50
2017-07-17T14:49:17.411Z,1.53
2017-07-17T14:51:45.358Z,1.40
2017-07-17T14:54:13.296Z,3.27
2017-07-17T14:56:41.339Z,1.70
2017-07-17T14:59:09.444Z,2.43
2017-07-17T15:01:37.382Z,1.90
2017-07-17T15:04:05.338Z,2.30
2017-07-17T15:06:33.437Z,2.63
2017-07-17T15:09:01.886Z,3.13
2017-07-17T15:11:29.856Z,3.50
2017-07-17T15:13:57.897Z,4.20
2017-07-17T15:16:25.884Z,2.83
2017-07-17T15:18:53.903Z,1.90
2017-07-17T15:21:21.917Z,4.50
2017-07-17T15:23:49.876Z,1.93
2017-07-17T15:26:17.833Z,1.77
2017-07-17T15:28:45.840Z,2.33
2017-07-17T15:31:13.839Z,2.27
2017-07-17T15:33:41.787Z,1.60
2017-07-17T15:36:09.843Z,3.53
2017-07-17T15:38:37.800Z,2.00
2017-07-17T15:41:05.752Z,1.43
2017-07-17T15:43:33.708Z,2.00
2017-07-17T15:46:02.102Z,3.77
2017-07-17T15:48:30.036Z,3.27
2017-07-17T15:50:57.987Z,2.87
2017-07-17T15:53:25.992Z,4.30
2017-07-17T15:55:53.943Z,3.57
2017-07-17T15:58:21.899Z,6.37
2017-07-17T16:00:49.840Z,5.80
2017-07-17T16:03:17.839Z,5.40
2017-07-17T16:05:45.951Z,4.53
2017-07-17T16:08:13.905Z,2.80
2017-07-17T16:10:41.875Z,2.63
2017-07-17T16:13:09.819Z,3.70
2017-07-17T16:15:37.775Z,3.67
2017-07-17T16:18:05.716Z,3.77
2017-07-17T16:20:33.656Z,4.27
2017-07-17T16:23:02.036Z,2.83
2017-07-17T16:25:30.567Z,2.03
2017-07-17T16:27:58.851Z,2.60
2017-07-17T16:30:26.808Z,5.57
2017-07-17T16:32:54.819Z,2.00
2017-07-17T16:35:22.868Z,3.23
2017-07-17T16:37:51.219Z,4.07
2017-07-17T16:40:19.359Z,2.10
2017-07-17T16:42:47.505Z,2.40
2017-07-17T16:45:15.581Z,2.03
2017-07-17T16:47:43.900Z,3.97
2017-07-17T16:50:12.246Z,2.87
2017-07-17T16:52:40.347Z,3.13
2017-07-17T16:55:08.298Z,2.23
2017-07-17T16:57:36.267Z,3.90
2017-07-17T17:00:04.227Z,6.40
2017-07-17T17:02:32.190Z,2.67
2017-07-17T17:05:00.135Z,4.70
2017-07-17T17:07:28.096Z,4.13
2017-07-17T17:09:56.059Z,3.50
2017-07-17T17:12:24.020Z,4.93
2017-07-17T17:14:51.971Z,2.60
2017-07-17T17:17:19.923Z,4.57
2017-07-17T17:19:47.915Z,3.03
2017-07-17T17:22:15.868Z,6.07
2017-07-17T17:24:43.826Z,3.37
2017-07-17T17:27:11.774Z,4.73
2017-07-17T17:29:39.719Z,3.23
2017-07-17T17:32:07.670Z,7.87
2017-07-17T17:34:35.623Z,5.63
2017-07-17T17:37:03.599Z,4.03
2017-07-17T17:39:31.535Z,6.77
2017-07-17T17:41:59.492Z,8.03
2017-07-17T17:44:27.437Z,4.43
2017-07-17T17:46:55.451Z,7.10
2017-07-17T17:49:23.403Z,2.70
2017-07-17T17:51:51.403Z,6.47
2017-07-17T17:54:19.346Z,4.43
2017-07-17T17:56:47.320Z,4.83
2017-07-17T17:59:15.287Z,2.67
2017-07-17T18:01:43.220Z,2.20
2017-07-17T18:04:11.193Z,2.63
2017-07-17T18:06:39.164Z,2.20
2017-07-17T18:09:07.109Z,5.30
2017-07-17T18:11:35.060Z,4.07
2017-07-17T18:14:02.992Z,2.80
2017-07-17T18:16:31.033Z,3.33
2017-07-17T18:18:58.986Z,4.17
2017-07-17T18:21:26.969Z,4.33
2017-07-17T18:23:54.966Z,3.43
2017-07-17T18:26:22.928Z,4.83
2017-07-17T18:28:50.922Z,6.23
2017-07-17T18:31:18.891Z,8.80
2017-07-17T18:33:47.012Z,5.73
2017-07-17T18:36:15.031Z,3.90
2017-07-17T18:38:42.979Z,3.20
2017-07-17T18:41:10.957Z,6.77
2017-07-17T18:43:38.941Z,1.97
2017-07-17T18:46:06.898Z,2.30
2017-07-17T18:48:34.843Z,3.47
2017-07-17T18:51:02.819Z,4.40
2017-07-17T18:53:30.799Z,5.10
2017-07-17T18:55:58.737Z,5.47
2017-07-17T18:58:26.671Z,3.83
2017-07-17T19:00:54.638Z,2.70
2017-07-17T19:03:22.571Z,3.00
2017-07-17T19:05:50.564Z,3.40
2017-07-17T19:08:18.561Z,2.50
2017-07-17T19:10:46.693Z,5.13
2017-07-17T19:13:14.702Z,4.87
2017-07-17T19:15:42.715Z,2.90
2017-07-17T19:18:10.667Z,6.20
2017-07-17T19:20:38.616Z,5.53
2017-07-17T19:23:06.631Z,3.53
2017-07-17T19:25:34.593Z,4.27
2017-07-17T19:28:02.565Z,4.27
2017-07-17T19:30:30.516Z,4.80
2017-07-17T19:32:58.496Z,3.87
2017-07-17T19:35:26.474Z,5.40
2017-07-17T19:37:54.532Z,6.63
2017-07-17T19:40:22.480Z,5.70
2017-07-17T19:42:50.426Z,5.07
2017-07-17T19:45:18.403Z,4.37
2017-07-17T19:47:46.742Z,6.10
2017-07-17T19:50:14.725Z,6.53
2017-07-17T19:52:42.728Z,4.07
2017-07-17T19:55:10.671Z,3.97
2017-07-17T19:57:38.663Z,3.97
2017-07-17T20:00:06.698Z,3.57
2017-07-17T20:02:34.721Z,4.33
2017-07-17T20:05:02.700Z,7.80
2017-07-17T20:07:30.661Z,3.47
2017-07-17T20:09:58.619Z,3.07
2017-07-17T20:12:26.602Z,4.30
2017-07-17T20:14:54.635Z,6.03
2017-07-17T20:17:22.594Z,5.00
2017-07-17T20:19:50.542Z,5.03
2017-07-17T20:22:18.488Z,3.77
2017-07-17T20:24:46.466Z,4.77
2017-07-17T20:27:14.434Z,5.70
2017-07-17T20:29:42.410Z,7.33
2017-07-17T20:32:10.368Z,8.40
2017-07-17T20:34:38.328Z,6.83
2017-07-17T20:37:06.315Z,5.77
2017-07-17T20:39:34.299Z,6.53
2017-07-17T20:42:02.290Z,3.70
2017-07-17T20:44:30.310Z,5.30
2017-07-17T20:46:58.266Z,5.83
2017-07-17T20:49:26.236Z,5.17
2017-07-17T20:51:54.173Z,4.27
2017-07-17T20:54:22.111Z,4.90
2017-07-17T20:56:50.059Z,6.20
2017-07-17T20:59:18.031Z,4.73
2017-07-17T21:01:46.063Z,4.30
2017-07-17T21:04:14.054Z,4.83
2017-07-17T21:06:42.007Z,4.27
2017-07-17T21:09:09.990Z,7.97
2017-07-17T21:11:37.963Z,4.40
2017-07-17T21:14:05.940Z,5.70
2017-07-17T21:16:34.019Z,3.93
2017-07-17T21:19:01.963Z,3.97
2017-07-17T21:21:29.938Z,4.80
2017-07-17T21:23:57.951Z,5.07
2017-07-17T21:26:25.915Z,5.03
2017-07-17T21:28:53.872Z,4.83
2017-07-17T21:31:21.829Z,3.60
2017-07-17T21:33:49.763Z,7.33
2017-07-17T21:36:17.710Z,5.10
2017-07-17T21:38:45.904Z,2.70
2017-07-17T21:41:13.867Z,3.73
2017-07-17T21:43:41.832Z,4.67
2017-07-17T21:46:09.911Z,4.13
2017-07-17T21:48:37.896Z,6.30
2017-07-17T21:51:05.949Z,9.00
2017-07-17T21:53:33.976Z,12.00
2017-07-17T21:56:01.934Z,8.03
2017-07-17T21:58:29.893Z,8.07
2017-07-17T22:00:57.838Z,5.53
2017-07-17T22:03:25.818Z,8.73
2017-07-17T22:05:53.774Z,6.27
2017-07-17T22:08:21.743Z,4.20
2017-07-17T22:10:49.726Z,5.40
2017-07-17T22:13:17.680Z,4.40
2017-07-17T22:15:45.641Z,5.00
2017-07-17T22:18:13.578Z,5.40
2017-07-17T22:20:41.607Z,3.80
2017-07-17T22:23:09.549Z,6.10
2017-07-17T22:25:37.487Z,7.30
2017-07-17T22:28:05.461Z,2.53
2017-07-17T22:30:33.401Z,3.27
2017-07-17T22:33:01.460Z,4.00
2017-07-17T22:35:29.384Z,7.60
2017-07-17T22:37:57.346Z,4.47
2017-07-17T22:40:25.352Z,3.27
2017-07-17T22:42:53.298Z,3.97
2017-07-17T22:45:21.222Z,2.77
2017-07-17T22:47:49.150Z,3.40
2017-07-17T22:50:17.089Z,2.80
2017-07-17T22:52:45.038Z,3.27
2017-07-17T22:55:12.963Z,5.07
2017-07-17T22:57:41.130Z,4.30
2017-07-17T23:00:09.095Z,2.33
2017-07-17T23:02:37.032Z,3.27
2017-07-17T23:05:05.035Z,2.30
2017-07-17T23:07:32.979Z,3.73
2017-07-17T23:10:00.935Z,4.10
2017-07-17T23:12:28.879Z,2.73
2017-07-17T23:14:56.825Z,3.80
2017-07-17T23:17:24.772Z,3.70
2017-07-17T23:19:52.711Z,4.80
2017-07-17T23:22:20.654Z,2.67
2017-07-17T23:24:48.591Z,2.70
2017-07-17T23:27:16.534Z,3.20
2017-07-17T23:29:44.595Z,5.10
2017-07-17T23:32:12.545Z,4.50
2017-07-17T23:34:40.484Z,2.50
2017-07-17T23:37:08.431Z,4.30
2017-07-17T23:39:36.358Z,2.87
2017-07-17T23:42:04.291Z,2.33
2017-07-17T23:44:32.336Z,4.37
2017-07-17T23:47:00.305Z,2.30
2017-07-17T23:49:28.263Z,5.40
2017-07-17T23:51:56.196Z,2.43
2017-07-17T23:54:24.123Z,2.47
2017-07-17T23:56:52.069Z,3.47
2017-07-17T23:59:20.016Z,3.37
